Time;durP1;ratioP1;P1;durP2;ratioP2;P2;SDS_P1;SDS_P2;PMS_P1;PMS_P2;Temp;Humidity;BMP_temperature;BMP_pressure;BME280_temperature;BME280_humidity;BME280_pressure;Samples;Min_cycle;Max_cycle;Signal;HPM_P1;HPM_P2
2022/01/30 00:01:43;;;;;;;2.65;2.38;;;6.30;99.90;;;;;;5031036;28;20377;-59
2022/01/30 00:04:09;;;;;;;2.40;2.20;;;6.40;99.90;;;;;;5031270;28;20024;-57
2022/01/30 00:06:34;;;;;;;2.55;2.35;;;6.40;99.90;;;;;;5031454;28;20021;-59
2022/01/30 00:09:00;;;;;;;2.20;2.10;;;6.30;99.90;;;;;;5030116;28;20346;-56
2022/01/30 00:11:31;;;;;;;2.63;2.42;;;6.30;99.90;;;;;;5020116;28;20084;-57
2022/01/30 00:13:59;;;;;;;2.40;2.20;;;6.40;99.90;;;;;;5011893;28;20034;-57
2022/01/30 00:16:29;;;;;;;3.70;2.50;;;6.40;99.90;;;;;;5011263;28;20096;-58
2022/01/30 00:24:01;;;;;;;2.53;2.33;;;6.50;99.90;;;;;;5028882;28;20067;-59
2022/01/30 00:26:32;;;;;;;2.92;1.88;;;6.50;99.90;;;;;;5019913;28;20014;-56
2022/01/30 00:28:58;;;;;;;2.30;2.10;;;6.40;99.90;;;;;;5013630;28;20108;-58
2022/01/30 00:31:26;;;;;;;2.30;2.20;;;6.40;99.90;;;;;;5021933;28;20045;-57
2022/01/30 00:33:52;;;;;;;2.97;2.35;;;6.40;99.90;;;;;;5011128;28;20046;-58
2022/01/30 00:36:18;;;;;;;4.75;2.63;;;6.30;99.90;;;;;;5027034;28;20396;-56
2022/01/30 00:38:44;;;;;;;2.78;2.22;;;6.40;99.90;;;;;;5031047;28;20037;-59
2022/01/30 00:41:10;;;;;;;5.78;2.97;;;6.30;99.90;;;;;;5030805;28;20036;-59
2022/01/30 00:43:35;;;;;;;4.97;2.50;;;6.30;99.90;;;;;;5030741;28;20029;-59
2022/01/30 00:46:01;;;;;;;7.32;2.75;;;6.30;99.90;;;;;;5033274;28;20060;-57
2022/01/30 00:48:27;;;;;;;2.85;2.58;;;6.30;99.90;;;;;;5017075;28;20030;-58
2022/01/30 00:50:53;;;;;;;3.00;2.08;;;6.30;99.90;;;;;;5014344;28;20418;-57
2022/01/30 00:53:19;;;;;;;2.47;2.28;;;6.20;99.90;;;;;;5014811;28;20389;-59
2022/01/30 00:55:45;;;;;;;2.75;2.53;;;6.20;99.90;;;;;;5014586;28;20030;-60
2022/01/30 00:58:11;;;;;;;2.78;2.58;;;6.20;99.90;;;;;;5013112;28;20029;-57
2022/01/30 01:00:37;;;;;;;2.97;2.78;;;6.20;99.90;;;;;;5014032;28;20137;-58
2022/01/30 01:03:04;;;;;;;2.30;2.10;;;6.20;99.90;;;;;;5014373;28;20497;-59
2022/01/30 01:05:31;;;;;;;2.28;2.17;;;6.20;99.90;;;;;;5014106;28;20018;-58
2022/01/30 01:08:01;;;;;;;3.35;2.78;;;6.30;99.90;;;;;;5014114;28;20103;-57
2022/01/30 01:10:38;;;;;;;2.75;2.55;;;6.30;99.90;;;;;;5013881;28;20161;-55
2022/01/30 01:23:51;;;;;;;3.40;3.10;;;6.20;99.90;;;;;;5019897;28;20076;-59
2022/01/30 01:26:18;;;;;;;4.90;3.58;;;6.10;99.90;;;;;;5033221;28;20060;-59
2022/01/30 01:28:45;;;;;;;4.13;3.08;;;6.00;99.90;;;;;;5032834;28;20071;-58
2022/01/30 01:31:11;;;;;;;7.05;4.60;;;6.10;99.90;;;;;;5033314;28;20039;-59
2022/01/30 01:34:07;;;;;;;2.42;2.22;;;6.10;99.90;;;;;;5033352;28;20047;-60
2022/01/30 01:36:24;;;;;;;4.07;3.20;;;6.10;99.90;;;;;;5013463;28;20032;-55
2022/01/30 01:38:50;;;;;;;6.53;3.88;;;6.20;99.90;;;;;;5016384;28;20017;-59
2022/01/30 01:41:19;;;;;;;3.58;3.28;;;6.10;99.90;;;;;;5033195;28;20456;-59
2022/01/30 01:43:45;;;;;;;3.30;3.03;;;6.20;99.90;;;;;;5032503;28;20028;-58
2022/01/30 01:46:18;;;;;;;3.70;3.08;;;6.30;99.90;;;;;;5022025;28;20085;-56
2022/01/30 01:48:45;;;;;;;3.08;2.78;;;6.30;99.90;;;;;;5032775;28;20033;-59
2022/01/30 01:51:17;;;;;;;3.92;3.15;;;6.30;99.90;;;;;;5026706;28;20401;-59
2022/01/30 01:53:44;;;;;;;4.63;3.67;;;6.30;99.90;;;;;;5013361;28;20026;-55
2022/01/30 01:56:13;;;;;;;4.53;3.83;;;6.30;99.90;;;;;;5012435;28;20022;-56
2022/01/30 01:58:38;;;;;;;7.20;5.18;;;6.40;99.90;;;;;;5013329;28;20088;-56
2022/01/30 02:01:04;;;;;;;14.77;6.32;;;6.40;99.90;;;;;;5013052;28;20571;-58
2022/01/30 02:03:30;;;;;;;12.57;6.28;;;6.40;99.90;;;;;;5020405;28;20036;-57
2022/01/30 02:06:00;;;;;;;10.23;4.53;;;6.40;99.90;;;;;;5032790;28;20104;-60
2022/01/30 02:27:21;;;;;;;29.20;9.30;;;6.30;99.90;;;;;;5032624;28;20124;-58
2022/01/30 02:29:47;;;;;;;2.53;2.30;;;6.30;99.90;;;;;;5032020;28;20404;-58
2022/01/30 02:32:13;;;;;;;13.55;5.65;;;6.30;99.90;;;;;;5032132;28;20423;-60
2022/01/30 02:34:39;;;;;;;39.70;12.77;;;6.30;99.90;;;;;;5032010;28;20021;-58
2022/01/30 02:37:05;;;;;;;16.58;6.72;;;6.30;99.90;;;;;;5031996;28;20033;-56
2022/01/30 02:39:31;;;;;;;13.07;5.05;;;6.20;99.90;;;;;;5027280;28;20075;-57
2022/01/30 02:41:57;;;;;;;8.20;4.38;;;6.20;99.90;;;;;;5012275;28;20034;-59
2022/01/30 02:44:36;;;;;;;7.05;4.45;;;6.20;99.90;;;;;;5012559;28;20645;-59
2022/01/30 02:47:22;;;;;;;10.23;4.78;;;6.20;99.90;;;;;;5028421;28;20036;-57
2022/01/30 02:50:11;;;;;;;6.82;3.83;;;6.20;99.90;;;;;;5031768;28;20021;-57
2022/01/30 02:52:40;;;;;;;29.08;11.40;;;6.10;99.90;;;;;;5021168;28;20022;-58
2022/01/30 02:55:06;;;;;;;4.60;3.28;;;5.80;99.90;;;;;;5013379;28;20081;-57
2022/01/30 02:57:32;;;;;;;18.27;7.88;;;5.60;99.90;;;;;;5022594;28;20072;-58
2022/01/30 02:59:58;;;;;;;13.90;7.38;;;5.60;99.90;;;;;;5011901;28;20489;-58
2022/01/30 03:02:24;;;;;;;6.88;4.60;;;5.60;99.90;;;;;;5027249;28;20022;-58
2022/01/30 03:04:49;;;;;;;13.30;6.28;;;5.50;99.90;;;;;;5031335;28;20030;-58
2022/01/30 03:07:15;;;;;;;3.53;3.13;;;5.50;99.90;;;;;;5031160;28;20377;-55
2022/01/30 03:09:40;;;;;;;3.28;2.80;;;5.40;99.90;;;;;;5031572;28;20038;-58
2022/01/30 03:12:07;;;;;;;5.65;2.83;;;5.40;99.90;;;;;;5031499;28;20041;-58
2022/01/30 03:14:32;;;;;;;3.35;3.05;;;5.40;99.90;;;;;;5015707;28;20050;-56
2022/01/30 03:16:58;;;;;;;4.32;3.28;;;5.40;99.90;;;;;;5010877;28;20390;-58
2022/01/30 03:19:24;;;;;;;2.70;2.40;;;5.40;99.90;;;;;;5012075;28;20022;-57
2022/01/30 03:21:49;;;;;;;3.65;2.90;;;5.40;99.90;;;;;;5010570;28;20025;-58
2022/01/30 03:24:15;;;;;;;2.65;2.47;;;5.40;99.90;;;;;;5011887;28;20101;-58
2022/01/30 03:26:41;;;;;;;3.03;2.83;;;5.40;99.90;;;;;;5010794;28;20026;-59
2022/01/30 03:29:08;;;;;;;2.97;2.30;;;5.50;99.90;;;;;;5010758;28;20017;-58
2022/01/30 03:31:39;;;;;;;2.58;2.38;;;5.50;99.90;;;;;;5010802;28;20030;-54
2022/01/30 03:34:07;;;;;;;2.45;2.33;;;5.50;99.90;;;;;;5011413;28;20080;-60
2022/01/30 03:36:33;;;;;;;2.67;2.47;;;5.50;99.90;;;;;;5011840;28;20069;-57
2022/01/30 03:38:59;;;;;;;3.92;2.38;;;5.50;99.90;;;;;;5011495;28;20101;-59
2022/01/30 03:41:26;;;;;;;2.75;2.55;;;5.50;99.90;;;;;;5011684;28;20113;-58
2022/01/30 03:43:52;;;;;;;2.38;2.28;;;5.50;99.90;;;;;;5011086;28;20033;-60
2022/01/30 03:46:19;;;;;;;2.83;2.55;;;5.50;99.90;;;;;;5010961;28;20029;-55
2022/01/30 03:48:45;;;;;;;2.90;1.98;;;5.70;99.90;;;;;;5011000;28;20087;-54
2022/01/30 03:51:11;;;;;;;2.50;2.40;;;5.80;99.90;;;;;;5027721;28;20053;-57
2022/01/30 03:53:37;;;;;;;4.70;2.70;;;5.80;99.90;;;;;;5030404;28;20060;-58
2022/01/30 03:56:03;;;;;;;2.50;2.30;;;5.80;99.90;;;;;;5030681;28;20037;-58
2022/01/30 03:58:30;;;;;;;2.05;1.95;;;5.80;99.90;;;;;;5021280;28;20041;-60
2022/01/30 04:00:55;;;;;;;3.17;1.90;;;5.80;99.90;;;;;;5011487;28;20486;-59
2022/01/30 04:03:21;;;;;;;2.22;2.03;;;5.90;99.90;;;;;;5011250;28;20057;-56
2022/01/30 04:05:47;;;;;;;2.30;2.20;;;5.90;99.90;;;;;;5025379;28;20513;-58
2022/01/30 04:08:12;;;;;;;3.05;2.40;;;5.90;99.90;;;;;;5011741;28;20030;-58
2022/01/30 04:10:39;;;;;;;4.93;2.10;;;5.80;99.90;;;;;;5009829;28;20034;-59
2022/01/30 04:13:05;;;;;;;3.95;2.30;;;5.90;99.90;;;;;;5023716;28;20029;-60
2022/01/30 04:15:31;;;;;;;2.00;1.90;;;6.00;99.90;;;;;;5030072;28;20053;-60
2022/01/30 04:17:57;;;;;;;2.45;2.33;;;6.00;99.90;;;;;;5029891;28;20063;-60
2022/01/30 04:20:22;;;;;;;2.80;2.60;;;6.00;99.90;;;;;;5032799;28;20058;-59
2022/01/30 04:22:48;;;;;;;3.15;2.13;;;6.00;99.90;;;;;;5024523;28;20054;-59
2022/01/30 04:25:14;;;;;;;6.43;2.97;;;6.00;99.90;;;;;;5015069;28;20036;-57
2022/01/30 04:27:39;;;;;;;1.98;1.88;;;6.10;99.90;;;;;;5015022;28;20044;-60
2022/01/30 04:30:07;;;;;;;2.20;2.10;;;6.10;99.90;;;;;;5018046;28;20136;-57
2022/01/30 04:32:34;;;;;;;1.92;1.83;;;6.10;99.90;;;;;;5026725;28;20038;-58
2022/01/30 04:35:10;;;;;;;2.40;2.20;;;6.20;99.90;;;;;;5025150;28;20053;-58
2022/01/30 04:56:55;;;;;;;1.90;1.80;;;6.20;99.90;;;;;;5028964;28;20048;-58
2022/01/30 05:02:07;;;;;;;3.15;1.88;;;6.20;99.90;;;;;;5029975;28;20052;-59
2022/01/30 05:07:26;;;;;;;2.10;2.00;;;6.10;99.90;;;;;;5032336;28;20033;-57
2022/01/30 05:09:52;;;;;;;2.33;2.17;;;6.10;99.90;;;;;;5033682;28;20013;-59
2022/01/30 05:12:17;;;;;;;2.38;2.28;;;5.90;99.90;;;;;;5029253;28;20600;-58
2022/01/30 05:14:44;;;;;;;5.65;4.05;;;5.90;99.90;;;;;;5025397;28;20049;-57
2022/01/30 05:17:10;;;;;;;2.22;2.13;;;5.90;99.90;;;;;;5033611;28;20029;-57
2022/01/30 05:19:36;;;;;;;26.48;4.55;;;5.80;99.90;;;;;;5033425;28;20013;-57
2022/01/30 05:22:02;;;;;;;2.78;2.40;;;5.70;99.90;;;;;;5015073;28;20038;-57
2022/01/30 05:24:28;;;;;;;3.80;2.75;;;5.50;99.90;;;;;;5014104;28;20029;-57
2022/01/30 05:26:53;;;;;;;3.20;2.90;;;5.50;99.90;;;;;;5012318;28;20512;-57
2022/01/30 05:29:19;;;;;;;9.57;6.22;;;5.40;99.90;;;;;;5013259;28;20033;-57
2022/01/30 05:31:45;;;;;;;5.50;3.08;;;5.40;99.90;;;;;;5016243;28;20038;-59
2022/01/30 05:34:11;;;;;;;12.50;5.75;;;5.40;99.90;;;;;;5027692;28;20108;-58
2022/01/30 05:36:40;;;;;;;16.10;7.28;;;5.40;99.90;;;;;;5033353;28;20033;-58
2022/01/30 05:39:07;;;;;;;14.98;6.15;;;5.40;99.90;;;;;;5027068;28;20028;-59
2022/01/30 05:41:33;;;;;;;6.90;4.07;;;5.40;99.90;;;;;;5018764;28;20026;-58
2022/01/30 05:44:09;;;;;;;3.67;3.40;;;5.30;99.90;;;;;;5029635;28;20029;-56
2022/01/30 05:46:46;;;;;;;3.40;2.88;;;5.30;99.90;;;;;;5019660;28;20041;-56
2022/01/30 05:49:14;;;;;;;17.23;8.20;;;5.30;99.90;;;;;;5013376;28;20037;-59
2022/01/30 05:51:40;;;;;;;78.90;25.33;;;5.20;99.90;;;;;;5014981;28;20087;-57
2022/01/30 05:54:06;;;;;;;55.97;18.65;;;5.20;99.90;;;;;;5027215;28;20029;-58
2022/01/30 05:56:33;;;;;;;41.08;13.18;;;5.20;99.90;;;;;;5017280;28;20022;-58
2022/01/30 05:59:03;;;;;;;34.88;12.10;;;5.20;99.90;;;;;;5025128;28;20120;-58
2022/01/30 06:01:29;;;;;;;29.20;21.95;;;5.20;99.90;;;;;;5031015;28;20453;-57
2022/01/30 06:03:54;;;;;;;6.07;5.47;;;5.20;99.90;;;;;;5030512;28;20057;-58
2022/01/30 06:06:20;;;;;;;2.67;2.47;;;5.20;99.90;;;;;;5014075;28;20041;-57
2022/01/30 06:08:58;;;;;;;3.65;3.35;;;5.20;99.90;;;;;;5025146;28;20076;-59
2022/01/30 06:11:24;;;;;;;3.25;3.00;;;5.30;99.90;;;;;;5032530;28;20044;-59
2022/01/30 06:13:49;;;;;;;5.78;3.08;;;5.30;99.90;;;;;;5032713;28;20033;-59
2022/01/30 06:16:15;;;;;;;3.65;2.85;;;5.20;99.90;;;;;;5028117;28;20038;-58
2022/01/30 06:18:40;;;;;;;2.55;2.35;;;5.10;99.90;;;;;;5032545;28;20493;-59
2022/01/30 06:21:06;;;;;;;3.22;3.03;;;5.00;99.90;;;;;;5020238;28;20471;-57
2022/01/30 06:23:32;;;;;;;3.35;3.15;;;4.90;99.90;;;;;;5011623;28;20028;-59
2022/01/30 06:25:58;;;;;;;3.10;2.80;;;4.90;99.90;;;;;;5018375;28;20104;-56
2022/01/30 06:28:24;;;;;;;2.88;2.67;;;4.80;99.90;;;;;;5032110;28;20480;-58
2022/01/30 06:30:50;;;;;;;4.50;2.35;;;4.80;99.90;;;;;;5023589;28;20037;-58
2022/01/30 06:33:16;;;;;;;4.38;2.40;;;4.90;99.90;;;;;;5012536;28;20107;-56
2022/01/30 06:35:42;;;;;;;3.03;2.78;;;4.90;99.90;;;;;;5027818;28;20021;-59
2022/01/30 06:38:07;;;;;;;2.90;2.70;;;4.90;99.90;;;;;;5018848;28;20393;-56
2022/01/30 06:40:33;;;;;;;3.22;2.92;;;5.00;99.90;;;;;;5010869;28;20032;-59
2022/01/30 06:42:59;;;;;;;2.92;2.72;;;5.00;99.90;;;;;;5011959;28;20059;-57
2022/01/30 06:45:25;;;;;;;3.90;2.78;;;5.00;99.90;;;;;;5026605;28;20408;-59
2022/01/30 06:47:51;;;;;;;3.42;3.13;;;4.90;99.90;;;;;;5032005;28;20461;-55
2022/01/30 06:50:17;;;;;;;2.60;2.40;;;4.90;99.90;;;;;;5031854;28;20392;-59
2022/01/30 06:52:44;;;;;;;3.45;2.33;;;4.90;99.90;;;;;;5028823;28;20030;-59
2022/01/30 06:55:10;;;;;;;2.60;2.40;;;4.90;99.90;;;;;;5031240;28;20483;-58
2022/01/30 06:57:50;;;;;;;5.32;3.15;;;4.90;99.90;;;;;;5030561;28;20018;-58
2022/01/30 07:00:16;;;;;;;5.05;3.10;;;5.00;99.90;;;;;;5031905;28;20029;-57
2022/01/30 07:02:42;;;;;;;2.75;2.55;;;5.10;99.90;;;;;;5031762;28;20025;-57
2022/01/30 07:05:08;;;;;;;5.07;3.20;;;5.00;99.90;;;;;;5031747;28;20037;-57
2022/01/30 07:07:33;;;;;;;3.30;3.00;;;5.00;99.90;;;;;;5031783;28;20026;-59
2022/01/30 07:10:00;;;;;;;4.72;3.20;;;5.00;99.90;;;;;;5030871;28;20083;-57
2022/01/30 07:12:26;;;;;;;3.10;2.90;;;5.00;99.90;;;;;;5030915;28;20064;-58
2022/01/30 07:14:51;;;;;;;2.95;2.75;;;5.00;99.90;;;;;;5030789;28;20073;-59
2022/01/30 07:17:17;;;;;;;4.45;2.95;;;5.10;99.90;;;;;;5030333;28;20017;-59
2022/01/30 07:19:42;;;;;;;5.10;2.90;;;5.10;99.90;;;;;;5030323;28;20022;-60
2022/01/30 07:22:08;;;;;;;4.70;3.17;;;5.10;99.90;;;;;;5030483;28;20091;-59
2022/01/30 07:24:34;;;;;;;3.42;3.13;;;5.10;99.90;;;;;;5030958;28;20099;-60
2022/01/30 07:26:59;;;;;;;4.40;3.15;;;5.10;99.90;;;;;;5030984;28;20037;-59
2022/01/30 07:29:28;;;;;;;3.75;3.40;;;5.10;99.90;;;;;;5031278;28;20548;-58
2022/01/30 07:31:54;;;;;;;3.38;3.08;;;5.00;99.90;;;;;;5030959;28;20033;-57
2022/01/30 07:34:21;;;;;;;5.43;3.58;;;4.90;99.90;;;;;;5031642;28;20021;-56
2022/01/30 07:36:47;;;;;;;6.18;4.43;;;4.80;99.90;;;;;;5031315;28;20029;-59
2022/01/30 07:39:15;;;;;;;4.45;4.05;;;4.50;99.90;;;;;;5030185;28;20022;-58
2022/01/30 07:41:40;;;;;;;14.88;4.47;;;4.40;99.90;;;;;;5031624;28;20022;-59
2022/01/30 07:44:06;;;;;;;12.68;5.20;;;4.30;99.90;;;;;;5031244;28;20036;-59
2022/01/30 07:46:32;;;;;;;10.38;5.75;;;4.20;99.90;;;;;;5031397;28;20033;-59
2022/01/30 07:48:59;;;;;;;16.63;8.15;;;4.20;99.90;;;;;;5031370;28;20485;-59
2022/01/30 07:51:24;;;;;;;28.92;11.27;;;4.20;99.90;;;;;;5030092;28;20025;-59
2022/01/30 07:53:50;;;;;;;10.60;6.25;;;4.10;99.90;;;;;;5031148;28;20472;-59
2022/01/30 07:56:15;;;;;;;20.38;9.00;;;4.10;99.90;;;;;;5034318;28;20491;-59
2022/01/30 07:58:41;;;;;;;18.40;8.82;;;4.10;99.90;;;;;;5035352;28;20041;-58
2022/01/30 08:01:07;;;;;;;19.33;8.82;;;4.00;99.90;;;;;;5035219;28;20021;-58
2022/01/30 08:03:33;;;;;;;11.15;5.65;;;4.10;99.90;;;;;;5035477;28;20045;-59
2022/01/30 08:05:58;;;;;;;16.20;8.57;;;4.20;99.90;;;;;;5035192;28;20040;-58
2022/01/30 08:08:24;;;;;;;13.48;6.47;;;4.20;99.90;;;;;;5035163;28;20499;-59
2022/01/30 08:10:50;;;;;;;19.27;7.82;;;4.20;99.90;;;;;;5035047;28;20180;-58
2022/01/30 08:13:16;;;;;;;25.38;12.07;;;4.30;99.90;;;;;;5035039;28;20052;-60
2022/01/30 08:15:44;;;;;;;12.23;6.53;;;4.20;99.90;;;;;;5035054;28;20045;-59
2022/01/30 08:18:10;;;;;;;12.38;7.53;;;4.40;99.90;;;;;;5035060;28;20048;-58
2022/01/30 08:20:36;;;;;;;13.90;8.00;;;4.50;99.90;;;;;;5035058;28;20017;-58
2022/01/30 08:23:07;;;;;;;12.15;4.10;;;4.60;99.90;;;;;;5034797;28;20053;-59
2022/01/30 08:25:33;;;;;;;8.18;4.47;;;4.70;99.90;;;;;;5034923;28;20115;-59
2022/01/30 08:27:59;;;;;;;7.25;4.15;;;4.80;99.90;;;;;;5033460;28;20568;-58
2022/01/30 08:30:27;;;;;;;12.77;4.45;;;4.90;99.90;;;;;;5033377;28;20022;-57
2022/01/30 08:32:53;;;;;;;5.63;3.67;;;5.10;99.90;;;;;;5034353;28;20088;-59
2022/01/30 08:35:20;;;;;;;6.53;4.22;;;5.10;99.90;;;;;;5034751;28;20025;-59
2022/01/30 08:37:46;;;;;;;9.45;4.45;;;5.10;99.90;;;;;;5034809;28;20033;-59
2022/01/30 08:40:17;;;;;;;15.27;4.13;;;5.20;99.90;;;;;;5034496;28;20018;-59
2022/01/30 08:42:44;;;;;;;6.93;3.83;;;5.30;99.90;;;;;;5034627;28;20033;-58
2022/01/30 08:45:12;;;;;;;8.52;5.43;;;5.40;99.90;;;;;;5034517;28;20076;-57
2022/01/30 08:47:43;;;;;;;10.82;3.88;;;5.40;99.90;;;;;;5034445;28;20055;-57
2022/01/30 08:50:10;;;;;;;7.78;3.58;;;5.50;99.90;;;;;;5034613;28;20109;-59
2022/01/30 08:52:36;;;;;;;9.60;4.40;;;5.60;99.90;;;;;;5034232;28;20033;-57
2022/01/30 08:55:04;;;;;;;10.30;3.75;;;5.70;99.90;;;;;;5032980;28;20453;-56
2022/01/30 08:57:29;;;;;;;7.30;3.88;;;5.80;99.90;;;;;;5034269;28;20018;-59
2022/01/30 08:59:57;;;;;;;10.45;3.78;;;5.60;99.90;;;;;;5034090;28;20086;-58
2022/01/30 09:02:23;;;;;;;7.88;3.83;;;5.60;99.90;;;;;;5034377;28;20033;-57
2022/01/30 09:04:49;;;;;;;6.03;3.30;;;5.60;99.90;;;;;;5034059;28;20033;-59
2022/01/30 09:07:16;;;;;;;7.40;3.70;;;5.60;99.90;;;;;;5032789;28;20022;-57
2022/01/30 09:09:41;;;;;;;15.20;3.90;;;5.60;99.90;;;;;;5032835;28;20044;-56
2022/01/30 09:12:07;;;;;;;14.30;3.40;;;5.50;99.90;;;;;;5032518;28;20034;-59
2022/01/30 09:14:33;;;;;;;12.70;5.45;;;5.60;99.90;;;;;;5032662;28;20049;-57
2022/01/30 09:16:58;;;;;;;9.63;4.40;;;5.50;99.90;;;;;;5032502;28;20048;-58
2022/01/30 09:19:24;;;;;;;6.72;3.50;;;5.60;99.90;;;;;;5033894;28;20388;-59
2022/01/30 09:21:51;;;;;;;7.20;3.58;;;5.50;99.90;;;;;;5033773;28;20018;-59
2022/01/30 09:24:16;;;;;;;8.82;4.00;;;5.40;99.90;;;;;;5033847;28;20512;-57
2022/01/30 09:26:42;;;;;;;9.95;3.90;;;5.40;99.90;;;;;;5033758;28;20068;-58
2022/01/30 09:29:08;;;;;;;11.18;4.00;;;5.40;99.90;;;;;;5033751;28;20060;-59
2022/01/30 09:31:34;;;;;;;9.98;3.92;;;5.40;99.90;;;;;;5033662;28;20029;-59
2022/01/30 09:33:59;;;;;;;6.63;3.60;;;5.40;99.90;;;;;;5033303;28;20551;-60
2022/01/30 09:36:25;;;;;;;11.82;3.50;;;5.30;99.90;;;;;;5033811;28;20025;-60
2022/01/30 09:38:52;;;;;;;4.82;3.45;;;5.30;99.90;;;;;;5033315;28;20159;-58
2022/01/30 09:41:19;;;;;;;13.30;3.95;;;5.40;99.90;;;;;;5033625;28;20030;-58
2022/01/30 09:43:45;;;;;;;7.03;3.53;;;5.50;99.90;;;;;;5032105;28;20500;-59
2022/01/30 09:46:10;;;;;;;13.82;4.68;;;5.40;99.90;;;;;;5033381;28;20137;-59
2022/01/30 09:48:38;;;;;;;4.90;3.35;;;5.40;99.90;;;;;;5033313;28;20104;-56
2022/01/30 09:51:07;;;;;;;10.02;4.00;;;5.50;99.90;;;;;;5033170;28;20041;-59
2022/01/30 09:53:34;;;;;;;11.27;4.57;;;5.60;99.90;;;;;;5033182;28;20128;-59
2022/01/30 09:56:03;;;;;;;25.17;8.00;;;5.60;99.90;;;;;;5033166;28;20021;-55
2022/01/30 09:58:29;;;;;;;16.27;5.88;;;5.50;99.90;;;;;;5033425;28;20451;-58
2022/01/30 10:00:55;;;;;;;14.07;6.65;;;5.40;99.90;;;;;;5033107;28;20041;-59
2022/01/30 10:03:22;;;;;;;15.43;4.40;;;5.40;99.90;;;;;;5033185;28;20075;-59
2022/01/30 10:06:13;;;;;;;7.90;5.10;;;5.30;99.90;;;;;;5032914;28;20641;-57
2022/01/30 10:08:44;;;;;;;12.00;4.07;;;5.30;99.90;;;;;;5033053;28;20037;-57
2022/01/30 10:11:32;;;;;;;10.82;4.28;;;5.30;99.90;;;;;;5033049;28;20033;-59
2022/01/30 10:14:14;;;;;;;8.82;3.90;;;5.30;99.90;;;;;;5031378;28;20117;-59
2022/01/30 10:16:47;;;;;;;10.13;3.95;;;5.50;99.90;;;;;;5032643;28;20030;-58
2022/01/30 10:19:20;;;;;;;8.27;3.92;;;5.60;99.90;;;;;;5032426;28;20021;-58
2022/01/30 10:21:48;;;;;;;7.55;3.92;;;6.00;99.90;;;;;;5031129;28;20595;-60
2022/01/30 10:24:18;;;;;;;10.02;3.55;;;6.80;99.90;;;;;;5031229;28;20095;-59
2022/01/30 10:26:43;;;;;;;11.68;4.05;;;7.40;99.90;;;;;;5032766;28;20045;-57
2022/01/30 10:29:26;;;;;;;12.85;4.13;;;8.50;99.90;;;;;;5032506;28;20029;-57
2022/01/30 10:32:08;;;;;;;8.15;4.13;;;8.50;99.90;;;;;;5031239;28;20025;-59
2022/01/30 10:34:38;;;;;;;15.07;4.75;;;7.90;99.90;;;;;;5032470;28;20033;-58
2022/01/30 10:37:12;;;;;;;6.75;2.95;;;7.90;99.90;;;;;;5032358;28;20037;-58
2022/01/30 10:39:56;;;;;;;;;;;8.50;99.90;;;;;;5032861;28;20053;-59
2022/01/30 10:42:39;;;;;;;14.47;3.83;;;8.20;99.90;;;;;;5032475;28;19909;-60
2022/01/30 10:45:11;;;;;;;12.10;3.40;;;8.50;99.90;;;;;;5032281;28;20487;-60
2022/01/30 10:47:38;;;;;;;7.75;3.20;;;8.00;99.90;;;;;;5032238;28;20064;-59
2022/01/30 10:50:11;;;;;;;14.80;3.47;;;8.50;99.00;;;;;;5031995;28;20029;-58
2022/01/30 10:52:55;;;;;;;12.10;4.35;;;8.20;98.30;;;;;;5032269;28;20025;-58
2022/01/30 10:55:43;;;;;;;11.95;4.97;;;7.80;99.90;;;;;;5032136;28;20029;-57
2022/01/30 10:58:13;;;;;;;12.20;4.32;;;8.50;98.80;;;;;;5030415;28;20619;-58
2022/01/30 11:00:43;;;;;;;9.80;3.20;;;9.50;96.80;;;;;;5032111;28;20017;-56
2022/01/30 11:03:30;;;;;;;8.60;3.60;;;8.90;96.90;;;;;;5031978;28;20053;-58
2022/01/30 11:05:59;;;;;;;8.10;3.30;;;9.20;97.10;;;;;;5031756;28;20025;-60
2022/01/30 11:08:26;;;;;;;18.13;4.38;;;10.20;93.90;;;;;;5031824;28;20392;-58
2022/01/30 11:11:07;;;;;;;8.60;3.25;;;10.30;94.60;;;;;;5031787;28;20022;-60
2022/01/30 11:13:33;;;;;;;12.52;3.28;;;11.30;93.60;;;;;;5031845;28;20129;-59
2022/01/30 11:19:01;;;;;;;8.57;2.70;;;10.60;92.00;;;;;;5038137;28;20112;-58
2022/01/30 11:21:27;;;;;;;7.45;2.92;;;10.00;91.30;;;;;;5031793;28;20449;-59
2022/01/30 11:23:56;;;;;;;7.38;3.67;;;9.20;91.40;;;;;;5031493;28;20056;-57
2022/01/30 11:26:22;;;;;;;13.52;3.78;;;8.70;93.90;;;;;;5031847;28;20112;-58
2022/01/30 11:28:48;;;;;;;12.27;3.67;;;7.90;94.50;;;;;;5030621;28;20148;-56
2022/01/30 11:31:17;;;;;;;15.20;5.80;;;7.40;96.80;;;;;;5031636;28;20532;-60
2022/01/30 11:33:45;;;;;;;13.18;5.38;;;7.20;98.00;;;;;;5031490;28;20395;-57
2022/01/30 11:36:12;;;;;;;10.43;6.70;;;7.00;98.60;;;;;;5031559;28;20025;-58
2022/01/30 11:38:39;;;;;;;75.47;39.30;;;6.90;99.90;;;;;;5031483;28;20116;-60
2022/01/30 11:41:17;;;;;;;18.80;6.95;;;6.70;99.90;;;;;;5031376;28;20040;-56
2022/01/30 11:44:17;;;;;;;14.77;5.55;;;6.30;99.90;;;;;;5031506;28;20079;-56
2022/01/30 11:46:52;;;;;;;13.80;6.72;;;6.00;99.90;;;;;;5031416;28;20025;-60
2022/01/30 11:49:18;;;;;;;9.80;4.50;;;6.30;99.90;;;;;;5031331;28;20116;-58
2022/01/30 11:51:55;;;;;;;15.50;4.50;;;6.70;99.90;;;;;;5030154;28;20060;-58
2022/01/30 11:54:33;;;;;;;13.75;4.22;;;6.50;99.90;;;;;;5031243;28;20021;-56
2022/01/30 11:56:59;;;;;;;13.05;4.25;;;6.20;99.90;;;;;;5031354;28;20025;-58
2022/01/30 11:59:40;;;;;;;20.98;5.22;;;6.00;99.90;;;;;;5031400;28;20546;-58
2022/01/30 12:02:22;;;;;;;10.75;4.00;;;6.00;99.90;;;;;;5031366;28;20075;-58
2022/01/30 12:04:58;;;;;;;17.10;6.40;;;5.90;99.90;;;;;;5031158;28;20484;-58
2022/01/30 12:07:40;;;;;;;13.95;7.15;;;6.00;99.90;;;;;;5030082;28;20030;-58
2022/01/30 12:10:26;;;;;;;12.13;4.80;;;6.10;99.90;;;;;;5029505;28;20028;-54
2022/01/30 12:13:04;;;;;;;14.13;3.92;;;6.00;99.90;;;;;;5029981;28;20033;-56
2022/01/30 12:15:43;;;;;;;8.65;3.78;;;6.20;99.90;;;;;;5029736;28;20051;-59
2022/01/30 12:18:27;;;;;;;12.80;4.45;;;6.30;99.90;;;;;;5030984;28;20028;-58
2022/01/30 12:21:08;;;;;;;10.35;3.65;;;6.10;99.90;;;;;;5030982;28;20489;-58
2022/01/30 12:23:42;;;;;;;20.65;6.57;;;6.40;99.90;;;;;;5029755;28;20034;-59
2022/01/30 12:26:15;;;;;;;12.40;4.65;;;6.40;99.90;;;;;;5031094;28;20037;-57
2022/01/30 12:28:52;;;;;;;15.82;4.65;;;6.30;99.90;;;;;;5031036;28;20022;-58
2022/01/30 12:31:33;;;;;;;8.50;3.42;;;6.10;99.90;;;;;;5029660;28;20546;-58
2022/01/30 12:34:11;;;;;;;20.48;5.72;;;6.30;99.90;;;;;;5030745;28;20418;-59
2022/01/30 12:36:36;;;;;;;12.52;3.90;;;6.00;99.90;;;;;;5031031;28;20032;-58
2022/01/30 12:39:12;;;;;;;12.15;5.28;;;6.60;99.90;;;;;;5030849;28;20029;-59
2022/01/30 12:41:39;;;;;;;9.93;4.80;;;7.60;98.70;;;;;;5033705;28;20048;-58
2022/01/30 12:44:07;;;;;;;19.45;3.95;;;7.90;98.00;;;;;;5034472;28;20599;-58
2022/01/30 12:46:48;;;;;;;9.10;3.45;;;8.40;97.70;;;;;;5034529;28;20033;-59
2022/01/30 12:49:19;;;;;;;12.90;3.50;;;7.90;97.20;;;;;;5034625;28;20078;-58
2022/01/30 12:51:57;;;;;;;11.05;3.25;;;6.90;97.70;;;;;;5034225;28;20030;-57
2022/01/30 12:54:36;;;;;;;11.60;4.10;;;6.50;98.80;;;;;;5032831;28;20033;-58
2022/01/30 12:57:02;;;;;;;16.17;4.80;;;6.30;99.20;;;;;;5033909;28;20028;-59
2022/01/30 12:59:28;;;;;;;12.93;5.88;;;6.10;99.90;;;;;;5034335;28;20480;-57
2022/01/30 13:02:06;;;;;;;13.68;4.07;;;5.90;99.90;;;;;;5033933;28;20049;-58
2022/01/30 13:04:32;;;;;;;17.48;4.38;;;5.70;99.90;;;;;;5034271;28;20021;-59
2022/01/30 13:06:58;;;;;;;14.27;4.47;;;5.70;99.90;;;;;;5033863;28;20362;-59
2022/01/30 13:09:25;;;;;;;15.55;3.55;;;6.20;99.90;;;;;;5034039;28;20030;-60
2022/01/30 13:11:56;;;;;;;14.88;4.55;;;6.90;98.60;;;;;;5034074;28;20060;-57
2022/01/30 13:14:31;;;;;;;13.93;3.17;;;6.80;98.30;;;;;;5033673;28;20030;-59
2022/01/30 13:16:56;;;;;;;14.18;5.13;;;7.30;97.60;;;;;;5033742;28;20044;-59
2022/01/30 13:19:33;;;;;;;15.75;3.72;;;7.00;96.70;;;;;;5033839;28;20025;-58
2022/01/30 13:22:01;;;;;;;14.43;4.55;;;6.70;97.00;;;;;;5033726;28;20538;-58
2022/01/30 13:24:27;;;;;;;9.50;3.35;;;6.50;97.80;;;;;;5033859;28;20032;-60
2022/01/30 13:26:57;;;;;;;17.23;5.07;;;6.40;98.20;;;;;;5033550;28;20018;-59
2022/01/30 13:29:22;;;;;;;16.75;4.30;;;6.30;98.50;;;;;;5033762;28;20021;-58
2022/01/30 13:31:54;;;;;;;14.27;5.07;;;6.00;98.20;;;;;;5033426;28;20060;-57
2022/01/30 13:34:31;;;;;;;11.07;3.90;;;6.30;97.90;;;;;;5033608;28;20079;-57
2022/01/30 13:37:05;;;;;;;15.30;4.30;;;7.00;95.80;;;;;;5033511;28;20032;-57
2022/01/30 13:39:41;;;;;;;7.72;3.42;;;6.80;96.20;;;;;;5033756;28;20021;-58
2022/01/30 13:42:33;;;;;;;12.82;3.97;;;6.70;95.90;;;;;;5033326;28;20018;-59
2022/01/30 13:48:04;;;;;;;12.55;4.25;;;6.80;96.20;;;;;;5033604;28;20393;-60
2022/01/30 13:50:43;;;;;;;11.45;3.50;;;6.80;96.00;;;;;;5032074;28;20330;-59
2022/01/30 13:53:17;;;;;;;18.67;4.65;;;6.60;95.50;;;;;;5032357;28;20092;-58
2022/01/30 13:56:05;;;;;;;11.95;3.83;;;6.40;96.10;;;;;;5033304;28;20025;-56
2022/01/30 13:58:37;;;;;;;11.18;3.85;;;6.40;96.80;;;;;;5031804;28;20036;-58
2022/01/30 14:01:10;;;;;;;15.48;5.45;;;6.70;96.10;;;;;;5032879;28;20049;-57
2022/01/30 14:03:37;;;;;;;13.43;3.58;;;6.50;96.40;;;;;;5032895;28;20040;-58
2022/01/30 14:06:14;;;;;;;14.95;5.00;;;6.60;95.50;;;;;;5032937;28;20378;-57
2022/01/30 14:08:51;;;;;;;15.65;4.35;;;6.30;95.80;;;;;;5033194;28;20035;-60